Time;durP1;ratioP1;P1;durP2;ratioP2;P2;SDS_P1;SDS_P2;PMS_P1;PMS_P2;Temp;Humidity;BMP_temperature;BMP_pressure;BME280_temperature;BME280_humidity;BME280_pressure;Samples;Min_cycle;Max_cycle;Signal;HPM_P1;HPM_P2
2021/12/14 00:00:39;;;;;;;13.77;8.70;;;;;;;;;;5087786;28;20448;-74
2021/12/14 00:03:06;;;;;;;13.40;7.33;;;;;;;;;;5087213;28;20440;-74
2021/12/14 00:05:34;;;;;;;17.13;8.10;;;;;;;;;;5092544;28;20441;-74
2021/12/14 00:08:02;;;;;;;12.90;8.07;;;;;;;;;;5091197;28;20469;-74
2021/12/14 00:10:48;;;;;;;13.27;8.07;;;;;;;;;;5091684;28;20474;-74
2021/12/14 00:13:23;;;;;;;12.97;7.80;;;;;;;;;;5087059;28;20567;-74
2021/12/14 00:15:50;;;;;;;12.70;6.97;;;;;;;;;;5092088;28;20943;-74
2021/12/14 00:18:17;;;;;;;14.90;9.73;;;;;;;;;;5089315;28;20488;-75
2021/12/14 00:20:46;;;;;;;18.33;7.73;;;;;;;;;;5085225;28;20979;-74
2021/12/14 00:26:02;;;;;;;11.83;7.20;;;;;;;;;;5091418;28;20432;-75
2021/12/14 00:28:31;;;;;;;12.73;7.53;;;;;;;;;;5100792;28;20483;-72
2021/12/14 00:31:00;;;;;;;8.77;6.80;;;;;;;;;;5105073;28;20520;-71
2021/12/14 00:33:30;;;;;;;14.47;7.83;;;;;;;;;;5115135;28;20452;-71
2021/12/14 00:35:58;;;;;;;18.70;7.63;;;;;;;;;;5098110;28;20468;-74
2021/12/14 00:38:26;;;;;;;12.83;6.80;;;;;;;;;;5092404;28;20579;-72
2021/12/14 00:40:56;;;;;;;13.50;6.53;;;;;;;;;;5085946;28;20445;-74
2021/12/14 00:43:25;;;;;;;11.87;7.63;;;;;;;;;;5086425;28;20437;-74
2021/12/14 00:45:53;;;;;;;11.87;8.10;;;;;;;;;;5073937;28;20446;-74
2021/12/14 00:48:21;;;;;;;13.00;6.20;;;;;;;;;;5089793;28;20553;-74
2021/12/14 00:50:51;;;;;;;9.80;6.70;;;;;;;;;;5090722;28;20799;-74
2021/12/14 00:53:18;;;;;;;11.87;7.70;;;;;;;;;;5080772;28;20479;-74
2021/12/14 00:55:47;;;;;;;13.80;7.73;;;;;;;;;;5082218;28;20996;-75
2021/12/14 00:58:14;;;;;;;11.70;6.87;;;;;;;;;;5085479;28;20452;-74
2021/12/14 01:00:45;;;;;;;14.00;6.90;;;;;;;;;;5088775;28;20532;-74
2021/12/14 01:03:13;;;;;;;10.10;6.13;;;;;;;;;;5081905;28;20451;-75
2021/12/14 01:05:41;;;;;;;12.87;6.43;;;;;;;;;;5087861;28;20544;-74
2021/12/14 01:08:11;;;;;;;13.00;6.70;;;;;;;;;;5082297;28;20445;-74
2021/12/14 01:10:41;;;;;;;12.73;6.33;;;;;;;;;;5084813;28;20444;-72
2021/12/14 01:13:09;;;;;;;10.73;6.07;;;;;;;;;;5090168;28;20881;-73
2021/12/14 01:15:51;;;;;;;12.73;6.50;;;;;;;;;;5090907;28;20856;-73
2021/12/14 01:18:31;;;;;;;13.67;6.63;;;;;;;;;;5083756;28;20456;-73
2021/12/14 01:21:08;;;;;;;8.67;6.10;;;;;;;;;;5090182;28;20529;-73
2021/12/14 01:23:35;;;;;;;10.10;6.33;;;;;;;;;;5090260;28;20518;-73
2021/12/14 01:26:06;;;;;;;13.20;6.23;;;;;;;;;;5089737;28;20448;-73
2021/12/14 01:28:33;;;;;;;13.20;6.30;;;;;;;;;;5090416;28;20476;-73
2021/12/14 01:31:07;;;;;;;13.53;5.87;;;;;;;;;;5090655;28;20868;-73
2021/12/14 01:33:38;;;;;;;10.33;6.77;;;;;;;;;;5071449;28;20453;-73
2021/12/14 01:36:11;;;;;;;12.37;6.90;;;;;;;;;;5084590;28;20449;-73
2021/12/14 01:38:58;;;;;;;14.33;7.20;;;;;;;;;;5090700;28;20477;-73
2021/12/14 01:41:25;;;;;;;9.20;5.90;;;;;;;;;;5085144;28;20536;-73
2021/12/14 01:43:54;;;;;;;14.47;6.33;;;;;;;;;;5071166;28;20445;-73
2021/12/14 01:46:23;;;;;;;14.97;8.30;;;;;;;;;;5089553;28;20536;-73
2021/12/14 01:48:52;;;;;;;13.07;6.40;;;;;;;;;;5093557;28;20482;-73
2021/12/14 01:51:20;;;;;;;12.00;5.40;;;;;;;;;;5082796;28;20459;-73
2021/12/14 01:53:48;;;;;;;9.53;6.40;;;;;;;;;;5074309;28;20453;-73
2021/12/14 01:56:17;;;;;;;11.90;7.50;;;;;;;;;;5088783;28;20664;-73
2021/12/14 01:58:46;;;;;;;12.00;7.00;;;;;;;;;;5090427;28;20480;-73
2021/12/14 02:01:18;;;;;;;12.03;6.27;;;;;;;;;;5093641;28;20884;-73
2021/12/14 02:03:47;;;;;;;13.57;7.20;;;;;;;;;;5093797;28;20444;-73
2021/12/14 02:06:17;;;;;;;10.30;5.60;;;;;;;;;;5093462;28;20806;-73
2021/12/14 02:08:45;;;;;;;13.10;6.30;;;;;;;;;;5093792;28;20441;-72
2021/12/14 02:11:12;;;;;;;12.57;6.40;;;;;;;;;;5093043;28;20452;-73
2021/12/14 02:13:42;;;;;;;13.43;7.60;;;;;;;;;;5093341;28;20447;-73
2021/12/14 02:16:11;;;;;;;13.23;6.40;;;;;;;;;;5093783;28;20443;-73
2021/12/14 02:18:38;;;;;;;14.53;5.87;;;;;;;;;;5093563;28;20456;-73
2021/12/14 02:21:08;;;;;;;10.00;4.80;;;;;;;;;;5092834;28;21016;-72
2021/12/14 02:23:37;;;;;;;13.47;7.13;;;;;;;;;;5093781;28;20841;-72
2021/12/14 02:26:06;;;;;;;12.93;7.03;;;;;;;;;;5086011;28;20808;-73
2021/12/14 02:28:33;;;;;;;12.00;6.53;;;;;;;;;;5093697;28;20445;-73
2021/12/14 02:31:02;;;;;;;12.00;6.40;;;;;;;;;;5080015;28;20452;-72
2021/12/14 02:33:32;;;;;;;13.20;6.07;;;;;;;;;;5076088;28;20516;-73
2021/12/14 02:36:00;;;;;;;13.40;6.30;;;;;;;;;;5086096;28;20455;-72
2021/12/14 02:38:28;;;;;;;12.90;6.83;;;;;;;;;;5079783;28;20468;-72
2021/12/14 02:40:57;;;;;;;15.27;8.07;;;;;;;;;;5073461;28;20482;-71
2021/12/14 02:43:27;;;;;;;13.27;6.90;;;;;;;;;;5094079;28;20452;-73
2021/12/14 02:46:01;;;;;;;15.63;7.53;;;;;;;;;;5092126;28;20776;-73
2021/12/14 02:48:28;;;;;;;11.90;6.13;;;;;;;;;;5093456;28;20471;-73
2021/12/14 02:50:55;;;;;;;12.90;6.10;;;;;;;;;;5092920;28;20459;-71
2021/12/14 02:53:23;;;;;;;13.40;7.03;;;;;;;;;;5093496;28;20531;-73
2021/12/14 02:55:51;;;;;;;10.53;6.20;;;;;;;;;;5078686;28;20441;-73
2021/12/14 02:58:18;;;;;;;12.17;5.83;;;;;;;;;;5092225;28;20535;-73
2021/12/14 03:00:47;;;;;;;12.57;6.63;;;;;;;;;;5092163;28;20480;-73
2021/12/14 03:03:15;;;;;;;11.83;5.93;;;;;;;;;;5092460;28;20482;-73
2021/12/14 03:05:43;;;;;;;12.10;6.23;;;;;;;;;;5092615;28;20449;-73
2021/12/14 03:08:14;;;;;;;12.27;6.60;;;;;;;;;;5092167;28;20484;-72
2021/12/14 03:10:54;;;;;;;11.40;6.00;;;;;;;;;;5090968;28;20472;-73
2021/12/14 03:13:23;;;;;;;12.60;6.07;;;;;;;;;;5103763;28;20512;-73
2021/12/14 03:15:53;;;;;;;12.30;5.60;;;;;;;;;;5115089;28;20452;-74
2021/12/14 03:18:21;;;;;;;12.67;6.50;;;;;;;;;;5110043;28;20440;-73
2021/12/14 03:20:50;;;;;;;11.83;5.47;;;;;;;;;;5093704;28;20607;-73
2021/12/14 03:23:20;;;;;;;14.83;5.90;;;;;;;;;;5092529;28;20467;-73
2021/12/14 03:25:48;;;;;;;12.60;5.80;;;;;;;;;;5092782;28;20452;-73
2021/12/14 03:28:16;;;;;;;13.80;7.23;;;;;;;;;;5091434;28;20747;-73
2021/12/14 03:30:56;;;;;;;11.33;5.73;;;;;;;;;;5076599;28;20445;-73
2021/12/14 03:33:25;;;;;;;12.17;6.73;;;;;;;;;;5091502;28;20963;-73
2021/12/14 03:35:54;;;;;;;11.60;5.20;;;;;;;;;;5092240;28;20527;-73
2021/12/14 03:38:22;;;;;;;9.30;6.23;;;;;;;;;;5089683;28;20455;-73
2021/12/14 03:40:56;;;;;;;14.07;6.50;;;;;;;;;;5084957;28;20476;-72
2021/12/14 03:43:23;;;;;;;8.30;5.13;;;;;;;;;;5082483;28;20812;-73
2021/12/14 03:45:52;;;;;;;11.33;5.83;;;;;;;;;;5092474;28;20531;-73
2021/12/14 03:48:21;;;;;;;12.03;5.93;;;;;;;;;;5091388;28;20934;-73
2021/12/14 03:50:49;;;;;;;9.30;5.17;;;;;;;;;;5091629;28;20455;-73
2021/12/14 03:53:19;;;;;;;10.17;4.53;;;;;;;;;;5091664;28;20452;-72
2021/12/14 03:55:49;;;;;;;10.00;4.47;;;;;;;;;;5092149;28;20457;-73
2021/12/14 03:58:19;;;;;;;8.77;5.77;;;;;;;;;;5089324;28;20539;-73
2021/12/14 04:00:47;;;;;;;5.30;3.70;;;;;;;;;;5091015;28;21050;-73
2021/12/14 04:03:17;;;;;;;7.13;4.43;;;;;;;;;;5091466;28;20971;-73
2021/12/14 04:05:44;;;;;;;7.10;3.03;;;;;;;;;;5091770;28;20451;-73
2021/12/14 04:08:12;;;;;;;9.20;4.50;;;;;;;;;;5090920;28;20444;-73
2021/12/14 04:10:40;;;;;;;6.47;4.10;;;;;;;;;;5089562;28;20451;-73
2021/12/14 04:13:08;;;;;;;6.23;3.40;;;;;;;;;;5091067;28;20455;-73
2021/12/14 04:15:35;;;;;;;6.30;3.80;;;;;;;;;;5091268;28;20955;-72
2021/12/14 04:18:02;;;;;;;5.60;3.70;;;;;;;;;;5090991;28;20452;-72
2021/12/14 04:20:33;;;;;;;5.70;2.87;;;;;;;;;;5091298;28;20472;-72
2021/12/14 04:23:01;;;;;;;6.50;4.40;;;;;;;;;;5090450;28;20451;-73
2021/12/14 04:25:30;;;;;;;9.30;4.23;;;;;;;;;;5090950;28;20459;-72
2021/12/14 04:27:58;;;;;;;5.97;3.57;;;;;;;;;;5086329;28;20483;-72
2021/12/14 04:30:28;;;;;;;8.17;4.33;;;;;;;;;;5091385;28;20535;-72
2021/12/14 04:32:57;;;;;;;5.07;4.17;;;;;;;;;;5091210;28;21180;-73
2021/12/14 04:35:24;;;;;;;6.47;4.10;;;;;;;;;;5091642;28;20455;-72
2021/12/14 04:37:55;;;;;;;9.00;5.37;;;;;;;;;;5087729;28;20447;-73
2021/12/14 04:40:37;;;;;;;7.77;3.83;;;;;;;;;;5088416;28;20986;-73
2021/12/14 04:54:09;;;;;;;4.67;2.60;;;;;;;;;;5076584;28;20487;-72
2021/12/14 04:56:41;;;;;;;6.47;3.10;;;;;;;;;;5080959;28;20440;-73
2021/12/14 04:59:10;;;;;;;6.40;4.33;;;;;;;;;;5088918;28;20480;-73
2021/12/14 05:01:39;;;;;;;7.47;3.57;;;;;;;;;;5090995;28;21031;-72
2021/12/14 05:04:08;;;;;;;8.00;4.53;;;;;;;;;;5090104;28;20445;-72
2021/12/14 05:06:47;;;;;;;5.90;3.60;;;;;;;;;;5090871;28;20951;-73
2021/12/14 05:09:22;;;;;;;5.20;3.37;;;;;;;;;;5073478;28;20448;-72
2021/12/14 05:11:51;;;;;;;5.27;2.87;;;;;;;;;;5081520;28;20476;-72
2021/12/14 05:14:18;;;;;;;4.57;3.30;;;;;;;;;;5090103;28;20534;-73
2021/12/14 05:16:45;;;;;;;6.30;3.33;;;;;;;;;;5084741;28;20573;-75
2021/12/14 05:19:13;;;;;;;5.90;3.53;;;;;;;;;;5080464;28;20448;-75
2021/12/14 05:21:41;;;;;;;8.83;3.80;;;;;;;;;;5080788;28;20481;-74
2021/12/14 05:24:10;;;;;;;6.50;3.83;;;;;;;;;;5085152;28;20537;-73
2021/12/14 05:26:39;;;;;;;4.50;3.20;;;;;;;;;;5095220;28;20865;-73
2021/12/14 05:29:08;;;;;;;6.80;3.57;;;;;;;;;;5094241;28;20448;-72
2021/12/14 05:31:42;;;;;;;7.90;3.43;;;;;;;;;;5095154;28;20460;-75
2021/12/14 05:34:09;;;;;;;10.07;4.33;;;;;;;;;;5078827;28;20929;-77
2021/12/14 05:36:36;;;;;;;8.97;4.50;;;;;;;;;;5094404;28;20919;-78
2021/12/14 05:39:17;;;;;;;6.20;3.63;;;;;;;;;;5093841;28;20528;-74
2021/12/14 05:44:31;;;;;;;5.60;3.43;;;;;;;;;;5094855;28;20419;-76
2021/12/14 05:47:00;;;;;;;4.90;3.17;;;;;;;;;;5094447;28;20539;-76
2021/12/14 05:49:29;;;;;;;5.83;3.40;;;;;;;;;;5094016;28;20484;-76
2021/12/14 05:51:58;;;;;;;5.60;3.97;;;;;;;;;;5093777;28;20529;-76
2021/12/14 05:54:26;;;;;;;6.17;4.20;;;;;;;;;;5097708;28;20936;-76
2021/12/14 05:56:56;;;;;;;5.70;3.33;;;;;;;;;;5108245;28;20451;-77
2021/12/14 05:59:24;;;;;;;8.60;3.60;;;;;;;;;;5089965;28;20440;-76
2021/12/14 06:01:52;;;;;;;6.73;3.73;;;;;;;;;;5095572;28;20484;-75
2021/12/14 06:04:19;;;;;;;5.83;3.90;;;;;;;;;;5094324;28;20458;-78
2021/12/14 06:06:51;;;;;;;8.50;4.57;;;;;;;;;;5094515;28;20870;-77
2021/12/14 06:09:21;;;;;;;9.33;4.10;;;;;;;;;;5092810;28;20581;-77
2021/12/14 06:11:50;;;;;;;5.80;3.47;;;;;;;;;;5094346;28;20456;-77
2021/12/14 06:14:19;;;;;;;7.67;3.97;;;;;;;;;;5093876;28;20543;-78
2021/12/14 06:16:47;;;;;;;6.73;3.40;;;;;;;;;;5093880;28;20452;-77
2021/12/14 06:19:16;;;;;;;5.20;3.43;;;;;;;;;;5093447;28;20444;-77
2021/12/14 06:21:43;;;;;;;5.17;3.47;;;;;;;;;;5094220;28;20490;-78
2021/12/14 06:24:11;;;;;;;4.50;3.00;;;;;;;;;;5093741;28;20535;-77
2021/12/14 06:26:40;;;;;;;5.13;3.90;;;;;;;;;;5094277;28;20540;-77
2021/12/14 06:29:09;;;;;;;6.53;3.80;;;;;;;;;;5093566;28;20455;-79
2021/12/14 06:31:37;;;;;;;4.87;2.70;;;;;;;;;;5094196;28;20448;-77
2021/12/14 06:34:21;;;;;;;5.10;4.03;;;;;;;;;;5092421;28;20535;-76
2021/12/14 06:37:18;;;;;;;5.60;3.60;;;;;;;;;;5081730;28;20445;-78
2021/12/14 06:40:04;;;;;;;4.50;3.33;;;;;;;;;;5093733;28;20493;-76
2021/12/14 06:42:32;;;;;;;7.00;3.33;;;;;;;;;;5094073;28;20511;-78
2021/12/14 06:45:07;;;;;;;6.73;3.70;;;;;;;;;;5093126;28;20436;-77
2021/12/14 06:47:36;;;;;;;7.47;4.13;;;;;;;;;;5093479;28;20479;-79
2021/12/14 06:50:05;;;;;;;6.60;4.83;;;;;;;;;;5093248;28;20519;-77
2021/12/14 06:52:33;;;;;;;5.40;2.97;;;;;;;;;;5093269;28;20531;-77
2021/12/14 06:55:00;;;;;;;4.00;3.60;;;;;;;;;;5093130;28;20445;-76
2021/12/14 06:57:27;;;;;;;8.00;4.90;;;;;;;;;;5093311;28;20432;-76
2021/12/14 06:59:56;;;;;;;8.00;4.80;;;;;;;;;;5093608;28;20445;-77
2021/12/14 07:02:24;;;;;;;9.43;4.50;;;;;;;;;;5093347;28;20501;-77
2021/12/14 07:04:52;;;;;;;7.03;4.07;;;;;;;;;;5093971;28;20440;-76
2021/12/14 07:07:20;;;;;;;6.70;4.07;;;;;;;;;;5092468;28;20445;-77
2021/12/14 07:09:53;;;;;;;5.73;3.77;;;;;;;;;;5093144;28;20443;-77
2021/12/14 07:12:21;;;;;;;8.30;5.30;;;;;;;;;;5092939;28;20432;-78
2021/12/14 07:15:01;;;;;;;6.10;3.70;;;;;;;;;;5093440;28;20671;-78
2021/12/14 07:17:30;;;;;;;9.53;4.47;;;;;;;;;;5093510;28;20462;-76
2021/12/14 07:20:02;;;;;;;5.70;4.07;;;;;;;;;;5092420;28;20543;-76
2021/12/14 07:22:40;;;;;;;5.63;4.10;;;;;;;;;;5092954;28;20523;-77
2021/12/14 07:25:09;;;;;;;8.30;4.90;;;;;;;;;;5092680;28;20436;-77
2021/12/14 07:27:38;;;;;;;9.43;4.90;;;;;;;;;;5093248;28;20451;-77
2021/12/14 07:30:16;;;;;;;6.70;4.47;;;;;;;;;;5092326;28;20432;-76
2021/12/14 07:32:46;;;;;;;9.07;4.90;;;;;;;;;;5092817;28;20444;-77
2021/12/14 07:35:21;;;;;;;7.80;5.20;;;;;;;;;;5092338;28;20876;-79
2021/12/14 07:37:48;;;;;;;8.97;5.07;;;;;;;;;;5092452;28;20519;-77
2021/12/14 07:40:16;;;;;;;7.03;4.23;;;;;;;;;;5092146;28;20757;-77
2021/12/14 07:42:43;;;;;;;9.73;5.97;;;;;;;;;;5092770;28;20872;-78
2021/12/14 07:45:10;;;;;;;10.53;4.20;;;;;;;;;;5092276;28;20436;-76
2021/12/14 07:47:38;;;;;;;15.07;5.00;;;;;;;;;;5092032;28;20481;-77
2021/12/14 07:50:05;;;;;;;6.43;4.90;;;;;;;;;;5091886;28;20532;-77
2021/12/14 07:52:35;;;;;;;6.37;4.53;;;;;;;;;;5092413;28;20971;-77
2021/12/14 07:55:03;;;;;;;6.37;4.80;;;;;;;;;;5092162;28;20448;-77
2021/12/14 07:57:32;;;;;;;8.47;5.37;;;;;;;;;;5092210;28;20440;-77
2021/12/14 08:00:01;;;;;;;5.97;4.53;;;;;;;;;;5091814;28;20466;-77
2021/12/14 08:02:31;;;;;;;6.97;4.43;;;;;;;;;;5091932;28;20476;-77
2021/12/14 08:04:59;;;;;;;7.50;5.13;;;;;;;;;;5091987;28;20447;-77
2021/12/14 08:07:28;;;;;;;7.37;4.70;;;;;;;;;;5078641;28;20440;-76
2021/12/14 08:10:05;;;;;;;7.10;5.40;;;;;;;;;;5092108;28;20437;-77
2021/12/14 08:12:35;;;;;;;8.30;4.47;;;;;;;;;;5092091;28;20455;-78
2021/12/14 08:15:08;;;;;;;7.47;5.33;;;;;;;;;;5091860;28;20527;-78
2021/12/14 08:17:36;;;;;;;6.47;4.20;;;;;;;;;;5092086;28;20453;-77
2021/12/14 08:20:04;;;;;;;9.23;5.07;;;;;;;;;;5091492;28;20448;-77
2021/12/14 08:22:34;;;;;;;7.93;6.00;;;;;;;;;;5091810;28;20519;-77
2021/12/14 08:25:03;;;;;;;7.93;4.90;;;;;;;;;;5091229;28;20920;-79
2021/12/14 08:27:31;;;;;;;6.70;4.80;;;;;;;;;;5092085;28;20447;-78
2021/12/14 08:30:00;;;;;;;7.50;5.10;;;;;;;;;;5091252;28;20436;-78
2021/12/14 08:32:30;;;;;;;6.53;4.60;;;;;;;;;;5092575;28;20440;-78
2021/12/14 08:34:58;;;;;;;7.53;5.20;;;;;;;;;;5099999;28;20500;-73
2021/12/14 08:37:28;;;;;;;7.40;4.23;;;;;;;;;;5115564;28;20448;-77
2021/12/14 08:39:59;;;;;;;5.87;3.73;;;;;;;;;;5115322;28;20476;-78
2021/12/14 08:42:34;;;;;;;6.77;4.67;;;;;;;;;;5098509;28;20464;-72
2021/12/14 08:45:24;;;;;;;6.90;4.70;;;;;;;;;;5094864;28;20526;-77
2021/12/14 08:47:53;;;;;;;6.53;4.70;;;;;;;;;;5091862;28;20476;-78
2021/12/14 08:50:20;;;;;;;6.10;3.70;;;;;;;;;;5091937;28;20785;-78
2021/12/14 08:52:48;;;;;;;7.20;4.87;;;;;;;;;;5091697;28;20452;-78
2021/12/14 08:55:16;;;;;;;6.23;4.47;;;;;;;;;;5091036;28;20904;-78
2021/12/14 08:57:45;;;;;;;5.27;4.13;;;;;;;;;;5090756;28;20433;-78
2021/12/14 09:00:15;;;;;;;6.83;3.87;;;;;;;;;;5090918;28;20447;-78
2021/12/14 09:02:45;;;;;;;7.60;4.83;;;;;;;;;;5091672;28;20877;-78
2021/12/14 09:05:14;;;;;;;6.80;3.80;;;;;;;;;;5091068;28;20791;-78
2021/12/14 09:07:42;;;;;;;5.33;4.10;;;;;;;;;;5091200;28;20475;-78
2021/12/14 09:10:12;;;;;;;4.67;3.17;;;;;;;;;;5090868;28;20516;-78
2021/12/14 09:12:41;;;;;;;4.53;3.53;;;;;;;;;;5091740;28;20432;-78
2021/12/14 09:15:11;;;;;;;5.50;3.70;;;;;;;;;;5090546;28;20552;-78
2021/12/14 09:17:38;;;;;;;4.90;3.60;;;;;;;;;;5091193;28;20454;-79
2021/12/14 09:20:07;;;;;;;6.00;4.40;;;;;;;;;;5090453;28;20436;-78
2021/12/14 09:22:36;;;;;;;8.27;4.53;;;;;;;;;;5091305;28;20482;-78
2021/12/14 09:25:05;;;;;;;4.90;4.17;;;;;;;;;;5090852;28;20444;-78
2021/12/14 09:27:33;;;;;;;8.27;4.10;;;;;;;;;;5091094;28;20527;-77
2021/12/14 09:30:01;;;;;;;6.17;3.97;;;;;;;;;;5090658;28;20856;-78
2021/12/14 09:32:30;;;;;;;8.13;4.27;;;;;;;;;;5091448;28;20444;-78
2021/12/14 09:34:57;;;;;;;7.70;4.40;;;;;;;;;;5090659;28;20467;-78
2021/12/14 09:37:25;;;;;;;5.00;3.80;;;;;;;;;;5091286;28;20520;-75
2021/12/14 09:39:55;;;;;;;4.83;3.63;;;;;;;;;;5091370;28;20436;-78
2021/12/14 09:42:24;;;;;;;6.20;4.17;;;;;;;;;;5091076;28;20472;-78
2021/12/14 09:44:52;;;;;;;5.53;3.90;;;;;;;;;;5077997;28;20462;-78
2021/12/14 09:47:22;;;;;;;5.10;4.13;;;;;;;;;;5090078;28;20458;-78
2021/12/14 09:49:51;;;;;;;10.03;4.70;;;;;;;;;;5090978;28;20441;-78
2021/12/14 09:52:20;;;;;;;5.40;4.17;;;;;;;;;;5090333;28;20899;-78
2021/12/14 09:54:48;;;;;;;3.90;3.47;;;;;;;;;;5090924;28;20528;-78
2021/12/14 09:57:18;;;;;;;3.70;3.27;;;;;;;;;;5090519;28;20935;-78
2021/12/14 09:59:46;;;;;;;4.27;3.63;;;;;;;;;;5090936;28;20528;-78
2021/12/14 10:02:15;;;;;;;5.97;3.87;;;;;;;;;;5090371;28;20480;-78
2021/12/14 10:04:44;;;;;;;5.10;3.77;;;;;;;;;;5091086;28;20579;-78
2021/12/14 10:07:13;;;;;;;3.67;2.60;;;;;;;;;;5089990;28;20912;-79
2021/12/14 10:09:45;;;;;;;5.03;3.60;;;;;;;;;;5093660;28;20446;-78
2021/12/14 10:12:39;;;;;;;9.37;3.20;;;;;;;;;;5093591;28;20436;-79
2021/12/14 10:15:06;;;;;;;4.97;3.60;;;;;;;;;;5093246;28;20440;-78
2021/12/14 10:17:33;;;;;;;5.87;4.13;;;;;;;;;;5094218;28;20540;-78
2021/12/14 10:20:00;;;;;;;6.93;4.30;;;;;;;;;;5093947;28;20455;-79
2021/12/14 10:22:31;;;;;;;5.57;4.33;;;;;;;;;;5094248;28;20480;-78
2021/12/14 10:24:59;;;;;;;7.40;4.37;;;;;;;;;;5093601;28;20992;-78
2021/12/14 10:27:27;;;;;;;9.40;4.47;;;;;;;;;;5093986;28;20528;-75
2021/12/14 10:29:55;;;;;;;5.80;4.40;;;;;;;;;;5094300;28;20528;-78
2021/12/14 10:32:24;;;;;;;5.13;4.33;;;;;;;;;;5094458;28;20451;-79
2021/12/14 10:34:52;;;;;;;5.90;4.30;;;;;;;;;;5094248;28;20792;-78
2021/12/14 10:37:23;;;;;;;5.90;4.57;;;;;;;;;;5093145;28;20439;-75
2021/12/14 10:42:54;;;;;;;6.23;5.07;;;;;;;;;;5093660;28;20505;-79
2021/12/14 10:45:22;;;;;;;6.40;4.80;;;;;;;;;;5093942;28;20785;-78
2021/12/14 10:47:50;;;;;;;10.07;5.33;;;;;;;;;;5093169;28;20475;-78
2021/12/14 10:50:18;;;;;;;6.00;3.60;;;;;;;;;;5092994;28;20449;-78
2021/12/14 10:52:46;;;;;;;10.03;4.63;;;;;;;;;;5093260;28;21041;-79
2021/12/14 10:55:17;;;;;;;5.87;4.90;;;;;;;;;;5094699;28;20447;-79
2021/12/14 10:57:45;;;;;;;7.63;5.10;;;;;;;;;;5087499;28;20458;-79
2021/12/14 11:00:15;;;;;;;7.87;5.47;;;;;;;;;;5072994;28;20442;-77
2021/12/14 11:02:43;;;;;;;8.30;5.40;;;;;;;;;;5093352;28;21001;-79
2021/12/14 11:05:16;;;;;;;6.40;4.50;;;;;;;;;;5092815;28;20440;-77
2021/12/14 11:07:46;;;;;;;5.73;4.27;;;;;;;;;;5092867;28;20463;-78
2021/12/14 11:10:16;;;;;;;9.00;5.03;;;;;;;;;;5092850;28;20513;-78
2021/12/14 11:12:45;;;;;;;6.63;4.47;;;;;;;;;;5093329;28;20515;-78
2021/12/14 11:15:14;;;;;;;7.10;4.77;;;;;;;;;;5092731;28;20486;-78
2021/12/14 11:20:31;;;;;;;8.80;5.07;;;;;;;;;;5111186;28;20419;-70
2021/12/14 11:23:03;;;;;;;6.30;4.70;;;;;;;;;;5116362;28;20467;-69
2021/12/14 11:25:33;;;;;;;9.17;4.97;;;;;;;;;;5100943;28;20453;-78
2021/12/14 11:28:05;;;;;;;8.00;5.03;;;;;;;;;;5097228;28;20449;-78
2021/12/14 11:30:33;;;;;;;10.07;4.80;;;;;;;;;;5095439;28;20448;-78
2021/12/14 11:33:06;;;;;;;6.13;4.90;;;;;;;;;;5092735;28;20540;-78
2021/12/14 11:35:37;;;;;;;7.50;5.10;;;;;;;;;;5092692;28;20478;-78
2021/12/14 11:38:11;;;;;;;12.23;5.47;;;;;;;;;;5091790;28;20441;-79
2021/12/14 11:40:40;;;;;;;5.70;4.20;;;;;;;;;;5092510;28;20474;-78
2021/12/14 11:43:12;;;;;;;8.70;5.30;;;;;;;;;;5091932;28;20933;-78
2021/12/14 11:45:40;;;;;;;8.47;5.37;;;;;;;;;;5092596;28;20539;-78
2021/12/14 11:48:07;;;;;;;9.10;4.90;;;;;;;;;;5091131;28;20488;-78
2021/12/14 11:50:37;;;;;;;10.63;6.43;;;;;;;;;;5092731;28;20808;-78
2021/12/14 11:53:13;;;;;;;10.50;5.60;;;;;;;;;;5078769;28;20762;-78
2021/12/14 11:55:44;;;;;;;10.37;5.30;;;;;;;;;;5092083;28;20502;-78
2021/12/14 11:58:20;;;;;;;9.00;5.50;;;;;;;;;;5081134;28;20536;-78
2021/12/14 12:00:48;;;;;;;8.50;5.17;;;;;;;;;;5090246;28;20448;-77
2021/12/14 12:03:23;;;;;;;8.80;5.60;;;;;;;;;;5084691;28;20922;-76
2021/12/14 12:06:00;;;;;;;7.47;5.40;;;;;;;;;;5076899;28;20523;-76
2021/12/14 12:11:15;;;;;;;13.60;5.27;;;;;;;;;;5077705;28;20432;-77
2021/12/14 12:13:43;;;;;;;7.27;5.60;;;;;;;;;;5089672;28;20495;-76
2021/12/14 12:16:12;;;;;;;12.20;6.10;;;;;;;;;;5079530;28;20441;-74
2021/12/14 12:18:39;;;;;;;9.40;6.30;;;;;;;;;;5076212;28;20452;-74
2021/12/14 12:21:07;;;;;;;8.53;5.83;;;;;;;;;;5080446;28;20543;-73
2021/12/14 12:23:35;;;;;;;9.23;5.37;;;;;;;;;;5088451;28;20564;-73
2021/12/14 12:26:09;;;;;;;7.23;5.00;;;;;;;;;;5081945;28;20515;-77
2021/12/14 12:28:40;;;;;;;8.83;5.40;;;;;;;;;;5081255;28;20549;-73
2021/12/14 12:31:11;;;;;;;6.33;4.67;;;;;;;;;;5077351;28;20465;-73
2021/12/14 12:33:39;;;;;;;6.80;5.23;;;;;;;;;;5086261;28;20439;-73
2021/12/14 12:36:09;;;;;;;9.33;6.27;;;;;;;;;;5075904;28;20451;-72
2021/12/14 12:38:48;;;;;;;11.17;6.77;;;;;;;;;;5079532;28;20808;-72
2021/12/14 12:41:24;;;;;;;7.37;5.00;;;;;;;;;;5078927;28;21033;-72
2021/12/14 12:43:55;;;;;;;9.60;5.40;;;;;;;;;;5079798;28;20495;-72
2021/12/14 12:46:23;;;;;;;7.83;5.67;;;;;;;;;;5076099;28;21008;-72
2021/12/14 12:49:08;;;;;;;14.57;6.17;;;;;;;;;;5082072;28;20986;-72
2021/12/14 12:51:44;;;;;;;7.43;5.90;;;;;;;;;;5072315;28;20815;-73
2021/12/14 12:54:15;;;;;;;9.47;6.47;;;;;;;;;;5070908;28;20859;-72
2021/12/14 12:56:43;;;;;;;9.30;5.93;;;;;;;;;;5074498;28;20503;-73
2021/12/14 12:59:12;;;;;;;9.57;5.30;;;;;;;;;;5068902;28;20445;-73
2021/12/14 13:01:39;;;;;;;8.50;6.80;;;;;;;;;;5072442;28;20560;-73
2021/12/14 13:04:07;;;;;;;11.10;6.83;;;;;;;;;;5070042;28;20469;-72
2021/12/14 13:06:34;;;;;;;14.10;7.40;;;;;;;;;;5072376;28;20537;-73
2021/12/14 13:09:02;;;;;;;8.73;6.13;;;;;;;;;;5071561;28;20445;-73
2021/12/14 13:11:30;;;;;;;8.40;6.50;;;;;;;;;;5080846;28;20535;-72
2021/12/14 13:13:59;;;;;;;9.87;6.80;;;;;;;;;;5081632;28;20539;-72
2021/12/14 13:16:28;;;;;;;17.13;11.77;;;;;;;;;;5090512;28;20527;-72
2021/12/14 13:18:57;;;;;;;10.93;7.73;;;;;;;;;;5079152;28;20474;-71
2021/12/14 13:21:43;;;;;;;9.30;7.00;;;;;;;;;;5085164;28;20527;-73
2021/12/14 13:24:13;;;;;;;9.53;6.53;;;;;;;;;;5079330;28;20552;-73
2021/12/14 13:26:42;;;;;;;8.50;6.77;;;;;;;;;;5082637;28;20455;-73
2021/12/14 13:29:18;;;;;;;8.77;7.70;;;;;;;;;;5080960;28;20458;-73
2021/12/14 13:31:49;;;;;;;8.47;6.37;;;;;;;;;;5084395;28;20448;-73
2021/12/14 13:34:31;;;;;;;23.77;7.00;;;;;;;;;;5082636;28;20509;-73
2021/12/14 13:36:59;;;;;;;9.73;7.27;;;;;;;;;;5077801;28;20457;-73
2021/12/14 13:39:26;;;;;;;9.63;6.60;;;;;;;;;;5089344;28;20788;-72
2021/12/14 13:42:08;;;;;;;8.90;7.20;;;;;;;;;;5083173;28;20902;-73
2021/12/14 13:44:37;;;;;;;12.40;7.03;;;;;;;;;;5033813;28;20457;-73
2021/12/14 13:47:07;;;;;;;10.93;7.13;;;;;;;;;;5077830;28;20445;-74
2021/12/14 13:49:35;;;;;;;10.83;7.30;;;;;;;;;;5093090;28;20446;-74
2021/12/14 13:52:02;;;;;;;7.93;6.93;;;;;;;;;;5090982;28;20440;-73
2021/12/14 13:54:29;;;;;;;11.67;7.20;;;;;;;;;;5085414;28;20893;-72
2021/12/14 13:56:57;;;;;;;14.50;7.13;;;;;;;;;;5090423;28;20442;-71
2021/12/14 13:59:24;;;;;;;14.23;8.00;;;;;;;;;;5083193;28;20459;-72
2021/12/14 14:01:53;;;;;;;10.73;7.90;;;;;;;;;;5076429;28;20458;-72
2021/12/14 14:04:23;;;;;;;7.80;6.20;;;;;;;;;;5085434;28;20554;-72
2021/12/14 14:06:50;;;;;;;8.10;5.73;;;;;;;;;;5091314;28;21626;-72
2021/12/14 14:09:20;;;;;;;6.83;5.10;;;;;;;;;;5072394;28;20441;-72
2021/12/14 14:11:50;;;;;;;9.43;6.30;;;;;;;;;;5089185;28;20452;-73
2021/12/14 14:14:23;;;;;;;7.67;5.43;;;;;;;;;;5091583;28;20555;-72
2021/12/14 14:16:52;;;;;;;6.37;5.73;;;;;;;;;;5091027;28;20494;-72
2021/12/14 14:19:21;;;;;;;10.20;6.67;;;;;;;;;;5072912;28;20449;-73
2021/12/14 14:21:51;;;;;;;9.47;6.40;;;;;;;;;;5086698;28;20460;-72
2021/12/14 14:24:19;;;;;;;8.30;5.90;;;;;;;;;;5086804;28;20479;-73
2021/12/14 14:26:46;;;;;;;8.90;6.93;;;;;;;;;;5093176;28;20820;-72
2021/12/14 14:29:15;;;;;;;10.27;7.07;;;;;;;;;;5084580;28;20455;-72
2021/12/14 14:31:46;;;;;;;11.17;7.10;;;;;;;;;;5091576;28;20551;-71
2021/12/14 14:34:20;;;;;;;9.30;6.70;;;;;;;;;;5081084;28;20453;-72
2021/12/14 14:36:55;;;;;;;11.10;7.27;;;;;;;;;;5089915;28;20526;-72
2021/12/14 14:39:24;;;;;;;9.37;6.57;;;;;;;;;;5092992;28;20444;-72
2021/12/14 14:41:52;;;;;;;11.70;8.47;;;;;;;;;;5090207;28;20584;-72
2021/12/14 14:44:25;;;;;;;10.13;7.43;;;;;;;;;;5076405;28;20477;-72
2021/12/14 14:46:58;;;;;;;13.47;7.50;;;;;;;;;;5084021;28;20546;-72
2021/12/14 14:49:27;;;;;;;12.70;8.70;;;;;;;;;;5092613;28;20473;-74
2021/12/14 14:51:55;;;;;;;17.67;9.90;;;;;;;;;;5078279;28;20532;-72
2021/12/14 14:54:46;;;;;;;13.30;8.23;;;;;;;;;;5078089;28;20449;-72
2021/12/14 14:57:32;;;;;;;15.47;8.40;;;;;;;;;;5078468;28;20453;-73
2021/12/14 15:00:14;;;;;;;12.00;8.40;;;;;;;;;;5080502;28;20934;-72
2021/12/14 15:02:50;;;;;;;11.63;8.60;;;;;;;;;;5077550;28;20822;-72
2021/12/14 15:05:19;;;;;;;12.40;8.60;;;;;;;;;;5078889;28;20449;-70
2021/12/14 15:07:54;;;;;;;13.30;8.50;;;;;;;;;;5076518;28;20571;-72
2021/12/14 15:10:24;;;;;;;15.57;8.60;;;;;;;;;;5090953;28;20444;-73
2021/12/14 15:13:08;;;;;;;12.60;8.63;;;;;;;;;;5080728;28;20449;-73
2021/12/14 15:15:35;;;;;;;16.20;7.77;;;;;;;;;;5076726;28;20867;-73
2021/12/14 15:18:03;;;;;;;11.40;7.67;;;;;;;;;;5078901;28;20453;-73
2021/12/14 15:20:31;;;;;;;16.27;8.40;;;;;;;;;;5091630;28;20460;-73